createdAt,value
2022-10-17T00:00:24.902Z,11.16
2022-10-17T00:01:20.203Z,11.29
2022-10-17T00:02:15.409Z,11.33
2022-10-17T00:03:13.037Z,11.31
2022-10-17T00:04:08.152Z,11.28
2022-10-17T00:05:03.469Z,11.28
2022-10-17T00:05:59.321Z,11.28
2022-10-17T00:06:54.497Z,11.29
2022-10-17T00:07:49.867Z,11.29
2022-10-17T00:08:44.978Z,11.31
2022-10-17T00:09:40.009Z,11.31
2022-10-17T00:10:35.037Z,11.34
2022-10-17T00:11:30.096Z,11.33
2022-10-17T00:12:25.159Z,11.34
2022-10-17T00:13:20.266Z,11.29
2022-10-17T00:14:15.415Z,11.28
2022-10-17T00:15:10.599Z,11.24
2022-10-17T00:16:05.632Z,11.21
2022-10-17T00:17:00.688Z,11.17
2022-10-17T00:17:55.686Z,11.16
2022-10-17T00:18:50.770Z,11.14
2022-10-17T00:19:45.774Z,11.15
2022-10-17T00:20:40.946Z,11.12
2022-10-17T00:21:39.806Z,11.11
2022-10-17T00:23:30.174Z,11.03
2022-10-17T00:24:25.344Z,11.03
2022-10-17T00:25:20.464Z,11.04
2022-10-17T00:26:15.470Z,11.02
2022-10-17T00:27:10.497Z,10.99
2022-10-17T00:28:05.538Z,10.98
2022-10-17T00:29:00.594Z,10.98
2022-10-17T00:29:55.634Z,10.97
2022-10-17T00:30:50.630Z,10.99
2022-10-17T00:31:45.698Z,10.99
2022-10-17T00:32:40.686Z,10.99
2022-10-17T00:33:35.718Z,10.98
2022-10-17T00:34:30.748Z,10.98
2022-10-17T00:35:25.745Z,10.98
2022-10-17T00:36:20.802Z,10.96
2022-10-17T00:37:15.931Z,10.96
2022-10-17T00:38:10.964Z,10.95
2022-10-17T00:39:06.950Z,10.97
2022-10-17T00:40:01.984Z,10.96
2022-10-17T00:40:57.028Z,10.96
2022-10-17T00:41:52.080Z,10.95
2022-10-17T00:42:47.113Z,10.96
2022-10-17T00:43:42.152Z,10.97
2022-10-17T00:44:37.178Z,10.98
2022-10-17T00:45:32.201Z,10.97
2022-10-17T00:46:27.236Z,10.96
2022-10-17T00:47:22.374Z,10.97
2022-10-17T00:48:21.259Z,10.98
2022-10-17T00:49:13.484Z,10.98
2022-10-17T00:50:07.553Z,10.98
2022-10-17T00:51:02.547Z,10.98
2022-10-17T00:51:57.550Z,10.95
2022-10-17T00:52:52.575Z,10.91
2022-10-17T00:53:47.597Z,10.91
2022-10-17T00:54:42.595Z,10.93
2022-10-17T00:55:40.024Z,10.91
2022-10-17T00:56:35.054Z,10.88
2022-10-17T00:57:30.041Z,10.87
2022-10-17T00:58:25.078Z,10.83
2022-10-17T00:59:20.084Z,10.78
2022-10-17T01:00:15.206Z,10.76
2022-10-17T01:01:10.287Z,10.75
2022-10-17T01:02:05.424Z,10.76
2022-10-17T01:03:01.437Z,10.77
2022-10-17T01:03:56.571Z,10.78
2022-10-17T01:04:51.848Z,10.76
2022-10-17T01:05:47.044Z,10.73
2022-10-17T01:06:42.165Z,10.68
2022-10-17T01:07:37.519Z,10.66
2022-10-17T01:08:32.542Z,10.63
2022-10-17T01:09:27.560Z,10.63
2022-10-17T01:11:18.898Z,10.63
2022-10-17T01:12:13.907Z,10.60
2022-10-17T01:13:09.050Z,10.60
2022-10-17T01:14:04.256Z,10.58
2022-10-17T01:14:59.297Z,10.55
2022-10-17T01:15:54.348Z,10.55
2022-10-17T01:16:49.443Z,10.55
2022-10-17T01:17:44.538Z,10.54
2022-10-17T01:18:39.581Z,10.56
2022-10-17T01:19:34.761Z,10.57
2022-10-17T01:20:29.769Z,10.57
2022-10-17T01:21:24.809Z,10.55
2022-10-17T01:22:19.866Z,10.55
2022-10-17T01:23:14.919Z,10.56
2022-10-17T01:24:09.926Z,10.57
2022-10-17T01:25:05.117Z,10.58
2022-10-17T01:26:00.145Z,10.58
2022-10-17T01:26:55.190Z,10.60
2022-10-17T01:27:53.974Z,10.61
2022-10-17T01:28:48.993Z,10.61
2022-10-17T01:29:44.086Z,10.60
2022-10-17T01:30:39.128Z,10.61
2022-10-17T01:31:34.173Z,10.62
2022-10-17T01:32:29.629Z,10.61
2022-10-17T01:33:24.337Z,10.60
2022-10-17T01:34:19.273Z,10.61
2022-10-17T01:35:14.320Z,10.65
2022-10-17T01:36:09.443Z,10.66
2022-10-17T01:37:04.517Z,10.68
2022-10-17T01:37:59.579Z,10.68
2022-10-17T01:38:55.136Z,10.68
2022-10-17T01:39:50.293Z,10.66
2022-10-17T01:40:45.456Z,10.62
2022-10-17T01:41:41.339Z,10.55
2022-10-17T01:42:36.629Z,10.49
2022-10-17T01:43:32.614Z,10.44
2022-10-17T01:44:27.658Z,10.39
2022-10-17T01:45:23.102Z,10.36
2022-10-17T01:46:18.972Z,10.33
2022-10-17T01:47:14.269Z,10.32
2022-10-17T01:48:09.556Z,10.29
2022-10-17T01:49:05.977Z,10.27
2022-10-17T01:50:01.127Z,10.26
2022-10-17T01:50:56.998Z,10.26
2022-10-17T01:51:52.287Z,10.26
2022-10-17T01:52:47.640Z,10.25
2022-10-17T01:53:43.253Z,10.25
2022-10-17T01:54:38.566Z,10.24
2022-10-17T01:55:34.454Z,10.24
2022-10-17T01:56:29.630Z,10.24
2022-10-17T01:57:25.064Z,10.23
2022-10-17T01:58:20.552Z,10.23
2022-10-17T01:59:15.734Z,10.23
2022-10-17T02:00:10.895Z,10.22
2022-10-17T02:01:07.450Z,10.20
2022-10-17T02:02:02.669Z,10.18
2022-10-17T02:02:58.523Z,10.17
2022-10-17T02:03:53.809Z,10.18
2022-10-17T02:04:49.039Z,10.15
2022-10-17T02:05:44.749Z,10.14
2022-10-17T02:06:39.948Z,10.14
2022-10-17T02:07:35.785Z,10.14
2022-10-17T02:08:31.070Z,10.13
2022-10-17T02:09:26.273Z,10.12
2022-10-17T02:10:22.155Z,10.13
2022-10-17T02:11:17.326Z,10.15
2022-10-17T02:12:12.630Z,10.17
2022-10-17T02:13:08.748Z,10.17
2022-10-17T02:14:03.958Z,10.16
2022-10-17T02:14:59.120Z,10.17
2022-10-17T02:15:54.336Z,10.15
2022-10-17T02:16:50.065Z,10.15
2022-10-17T02:17:45.216Z,10.14
2022-10-17T02:18:40.541Z,10.12
2022-10-17T02:19:36.371Z,10.12
2022-10-17T02:20:31.600Z,10.13
2022-10-17T02:21:26.731Z,10.12
2022-10-17T02:22:23.152Z,10.10
2022-10-17T02:24:14.211Z,10.08
2022-10-17T02:25:09.367Z,10.07
2022-10-17T02:26:04.551Z,10.04
2022-10-17T02:27:00.445Z,9.99
2022-10-17T02:27:55.614Z,9.97
2022-10-17T02:28:51.796Z,9.95
2022-10-17T02:29:46.739Z,9.91
2022-10-17T02:30:41.872Z,9.88
2022-10-17T02:31:36.965Z,9.87
2022-10-17T02:32:32.164Z,9.86
2022-10-17T02:33:27.255Z,9.84
2022-10-17T02:34:22.338Z,9.82
2022-10-17T02:35:17.492Z,9.82
2022-10-17T02:36:12.513Z,9.79
2022-10-17T02:37:07.615Z,9.80
2022-10-17T02:38:02.608Z,9.78
2022-10-17T02:38:57.720Z,9.79
2022-10-17T02:39:52.678Z,9.77
2022-10-17T02:40:47.773Z,9.77
2022-10-17T02:41:42.899Z,9.76
2022-10-17T02:42:38.117Z,9.80
2022-10-17T02:43:33.299Z,9.81
2022-10-17T02:44:28.499Z,9.83
2022-10-17T02:45:23.628Z,9.81
2022-10-17T02:46:23.187Z,9.83
2022-10-17T02:47:18.149Z,9.84
2022-10-17T02:48:13.272Z,9.83
2022-10-17T02:49:08.375Z,9.84
2022-10-17T02:50:03.495Z,9.86
2022-10-17T02:50:58.611Z,9.85
2022-10-17T02:51:53.584Z,9.84
2022-10-17T02:52:48.645Z,9.83
2022-10-17T02:53:43.672Z,9.80
2022-10-17T02:54:38.778Z,9.81
2022-10-17T02:55:33.753Z,9.81
2022-10-17T02:56:28.724Z,9.80
2022-10-17T02:57:23.814Z,9.81
2022-10-17T02:58:19.031Z,9.81
2022-10-17T02:59:14.164Z,9.80
2022-10-17T03:00:09.269Z,9.78
2022-10-17T03:01:04.399Z,9.79
2022-10-17T03:01:59.486Z,9.79
2022-10-17T03:02:54.612Z,9.78
2022-10-17T03:03:49.680Z,9.78
2022-10-17T03:04:44.772Z,9.80
2022-10-17T03:05:39.856Z,9.82
2022-10-17T03:06:35.002Z,9.82
2022-10-17T03:07:30.056Z,9.84
2022-10-17T03:08:25.194Z,9.81
2022-10-17T03:09:20.197Z,9.79
2022-10-17T03:10:15.256Z,9.78
2022-10-17T03:11:10.265Z,9.77
2022-10-17T03:12:05.321Z,9.77
2022-10-17T03:13:00.440Z,9.76
2022-10-17T03:13:55.609Z,9.77
2022-10-17T03:14:50.524Z,9.78
2022-10-17T03:15:45.620Z,9.77
2022-10-17T03:16:40.712Z,9.77
2022-10-17T03:17:35.891Z,9.77
2022-10-17T03:18:30.839Z,9.76
2022-10-17T03:19:25.984Z,9.73
2022-10-17T03:20:21.052Z,9.72
2022-10-17T03:21:16.152Z,9.72
2022-10-17T03:22:11.243Z,9.73
2022-10-17T03:23:06.336Z,9.71
2022-10-17T03:24:01.540Z,9.71
2022-10-17T03:24:56.664Z,9.70
2022-10-17T03:25:51.749Z,9.67
2022-10-17T03:27:41.988Z,9.61
2022-10-17T03:28:37.106Z,9.58
2022-10-17T03:29:32.262Z,9.53
2022-10-17T03:30:27.482Z,9.51
2022-10-17T03:31:22.856Z,9.48
2022-10-17T03:32:17.937Z,9.47
2022-10-17T03:33:13.042Z,9.46
2022-10-17T03:34:08.154Z,9.48
2022-10-17T03:35:03.365Z,9.50
2022-10-17T03:35:58.563Z,9.51
2022-10-17T03:36:53.669Z,9.53
2022-10-17T03:37:48.877Z,9.55
2022-10-17T03:38:43.942Z,9.55
2022-10-17T03:39:39.077Z,9.60
2022-10-17T03:40:34.029Z,9.64
2022-10-17T03:41:32.128Z,9.67
2022-10-17T03:42:27.225Z,9.64
2022-10-17T03:43:22.433Z,9.64
2022-10-17T03:44:17.578Z,9.62
2022-10-17T03:45:13.371Z,9.63
2022-10-17T03:46:08.638Z,9.64
2022-10-17T03:47:03.792Z,9.68
2022-10-17T03:47:59.005Z,9.72
2022-10-17T03:48:54.553Z,9.71
2022-10-17T03:49:49.756Z,9.72
2022-10-17T03:50:44.942Z,9.70
2022-10-17T03:51:40.058Z,9.68
2022-10-17T03:52:35.294Z,9.66
2022-10-17T03:53:30.376Z,9.65
2022-10-17T03:54:25.473Z,9.60
2022-10-17T03:55:20.820Z,9.54
2022-10-17T03:56:16.186Z,9.52
2022-10-17T03:57:11.273Z,9.51
2022-10-17T03:58:06.517Z,9.49
2022-10-17T03:59:01.628Z,9.46
2022-10-17T03:59:56.685Z,9.45
2022-10-17T04:00:51.922Z,9.47
2022-10-17T04:01:47.092Z,9.46
2022-10-17T04:02:42.152Z,9.48
2022-10-17T04:03:37.533Z,9.50
2022-10-17T04:04:32.632Z,9.50
2022-10-17T04:05:27.729Z,9.50
2022-10-17T04:06:22.838Z,9.52
2022-10-17T04:07:18.097Z,9.55
2022-10-17T04:08:13.315Z,9.56
2022-10-17T04:09:08.398Z,9.56
2022-10-17T04:10:03.592Z,9.57
2022-10-17T04:10:58.682Z,9.59
2022-10-17T04:11:54.079Z,9.58
2022-10-17T04:12:49.159Z,9.58
2022-10-17T04:13:44.262Z,9.53
2022-10-17T04:14:39.399Z,9.49
2022-10-17T04:15:34.517Z,9.47
2022-10-17T04:16:29.668Z,9.46
2022-10-17T04:17:24.780Z,9.46
2022-10-17T04:18:19.904Z,9.44
2022-10-17T04:19:15.134Z,9.42
2022-10-17T04:20:10.478Z,9.41
2022-10-17T04:21:05.589Z,9.41
2022-10-17T04:22:00.723Z,9.41
2022-10-17T04:22:55.835Z,9.44
2022-10-17T04:23:51.047Z,9.49
2022-10-17T04:24:46.428Z,9.51
2022-10-17T04:25:41.530Z,9.55
2022-10-17T04:26:36.750Z,9.60
2022-10-17T04:27:31.859Z,9.65
2022-10-17T04:28:27.345Z,9.66
2022-10-17T04:29:22.412Z,9.67
2022-10-17T04:30:17.506Z,9.66
2022-10-17T04:31:12.745Z,9.64
2022-10-17T04:32:07.845Z,9.63
2022-10-17T04:33:03.059Z,9.64
2022-10-17T04:33:58.155Z,9.62
2022-10-17T04:34:53.318Z,9.59
2022-10-17T04:35:48.503Z,9.59
2022-10-17T04:36:43.875Z,9.58
2022-10-17T04:37:38.985Z,9.60
2022-10-17T04:38:34.080Z,9.59
2022-10-17T04:39:29.379Z,9.63
2022-10-17T04:40:24.510Z,9.67
2022-10-17T04:41:19.755Z,9.68
2022-10-17T04:42:17.042Z,9.65
2022-10-17T04:43:12.280Z,9.63
2022-10-17T04:44:07.499Z,9.64
2022-10-17T04:45:02.812Z,9.62
2022-10-17T04:45:58.012Z,9.62
2022-10-17T04:46:53.119Z,9.61
2022-10-17T04:47:48.221Z,9.58
2022-10-17T04:48:43.310Z,9.56
2022-10-17T04:49:38.389Z,9.55
2022-10-17T04:50:33.336Z,9.53
2022-10-17T04:51:28.330Z,9.46
2022-10-17T04:52:23.405Z,9.43
2022-10-17T04:53:18.484Z,9.41
2022-10-17T04:54:14.176Z,9.39
2022-10-17T04:55:09.254Z,9.36
2022-10-17T04:56:04.339Z,9.36
2022-10-17T04:56:59.457Z,9.35
2022-10-17T04:57:54.564Z,9.33
2022-10-17T04:58:49.640Z,9.31
2022-10-17T04:59:44.754Z,9.32
2022-10-17T05:00:39.868Z,9.34
2022-10-17T05:01:34.818Z,9.37
2022-10-17T05:02:30.074Z,9.40
2022-10-17T05:03:25.002Z,9.41
2022-10-17T05:04:22.417Z,9.42
2022-10-17T05:05:14.976Z,9.42
2022-10-17T05:06:09.984Z,9.43
2022-10-17T05:07:05.108Z,9.42
2022-10-17T05:08:00.120Z,9.48
2022-10-17T05:08:58.074Z,9.56
2022-10-17T05:09:53.178Z,9.64
2022-10-17T05:10:48.408Z,9.72
2022-10-17T05:11:43.507Z,9.79
2022-10-17T05:12:38.641Z,9.82
2022-10-17T05:13:33.788Z,9.81
2022-10-17T05:14:28.790Z,9.79
2022-10-17T05:15:23.806Z,9.78
2022-10-17T05:16:18.922Z,9.77
2022-10-17T05:17:14.041Z,9.73
2022-10-17T05:18:09.105Z,9.68
2022-10-17T05:19:04.164Z,9.60
2022-10-17T05:19:59.216Z,9.55
2022-10-17T05:20:58.384Z,9.53
2022-10-17T05:21:53.527Z,9.50
2022-10-17T05:22:48.725Z,9.47
2022-10-17T05:23:43.774Z,9.42
2022-10-17T05:24:38.853Z,9.37
2022-10-17T05:25:33.843Z,9.31
2022-10-17T05:26:28.921Z,9.28
2022-10-17T05:27:23.987Z,9.25
2022-10-17T05:28:19.107Z,9.25
2022-10-17T05:29:14.134Z,9.24
2022-10-17T05:30:09.217Z,9.21
2022-10-17T05:31:04.334Z,9.18
2022-10-17T05:31:59.408Z,9.17
2022-10-17T05:32:58.935Z,9.18
2022-10-17T05:33:54.011Z,9.22
2022-10-17T05:34:49.120Z,9.25
2022-10-17T05:35:44.210Z,9.27
2022-10-17T05:36:39.327Z,9.31
2022-10-17T05:37:34.350Z,9.36
2022-10-17T05:38:29.464Z,9.39
2022-10-17T05:39:24.447Z,9.41
2022-10-17T05:40:19.518Z,9.44
2022-10-17T05:41:14.599Z,9.46
2022-10-17T05:42:09.609Z,9.49
2022-10-17T05:43:04.647Z,9.50
2022-10-17T05:44:03.108Z,9.50
2022-10-17T05:44:56.282Z,9.45
2022-10-17T05:45:50.686Z,9.42
2022-10-17T05:46:47.225Z,9.39
2022-10-17T05:47:42.642Z,9.35
2022-10-17T05:48:38.370Z,9.33
2022-10-17T05:49:44.958Z,9.32
2022-10-17T05:50:30.140Z,9.50
2022-10-17T05:51:24.765Z,10.23
2022-10-17T05:52:20.111Z,10.76
2022-10-17T05:53:15.458Z,11.14
2022-10-17T05:54:11.739Z,11.29
2022-10-17T05:55:07.110Z,11.43
2022-10-17T05:56:02.897Z,11.58
2022-10-17T05:56:58.153Z,11.78
2022-10-17T05:57:53.504Z,11.94
2022-10-17T05:58:50.656Z,12.09
2022-10-17T05:59:44.538Z,12.25
2022-10-17T06:00:40.308Z,12.42
2022-10-17T06:01:35.582Z,12.63
2022-10-17T06:02:31.293Z,12.77
2022-10-17T06:03:26.681Z,12.81
2022-10-17T06:04:22.006Z,12.96
2022-10-17T06:05:17.294Z,13.03
2022-10-17T06:06:13.642Z,12.83
2022-10-17T06:07:08.967Z,12.54
2022-10-17T06:08:04.278Z,12.24
2022-10-17T06:08:59.366Z,12.00
2022-10-17T06:09:54.434Z,11.69
2022-10-17T06:10:49.471Z,11.49
2022-10-17T06:11:44.528Z,11.27
2022-10-17T06:12:39.588Z,11.13
2022-10-17T06:13:34.566Z,11.00
2022-10-17T06:14:29.667Z,10.87
2022-10-17T06:15:24.765Z,10.76
2022-10-17T06:16:19.845Z,10.65
2022-10-17T06:17:16.186Z,10.58
2022-10-17T06:18:10.072Z,10.54
2022-10-17T06:19:05.084Z,10.51
2022-10-17T06:20:00.320Z,10.48
2022-10-17T06:20:55.329Z,10.45
2022-10-17T06:21:54.096Z,10.47
2022-10-17T06:22:49.139Z,10.45
2022-10-17T06:23:44.173Z,10.47
2022-10-17T06:24:39.292Z,10.48
2022-10-17T06:25:34.392Z,10.46
2022-10-17T06:26:29.452Z,10.46
2022-10-17T06:27:24.453Z,10.43
2022-10-17T06:28:19.499Z,10.38
2022-10-17T06:29:14.591Z,10.34
2022-10-17T06:30:09.629Z,10.29
2022-10-17T06:31:05.186Z,10.24
2022-10-17T06:32:00.788Z,10.23
2022-10-17T06:32:56.373Z,10.20
2022-10-17T06:33:51.707Z,10.19
2022-10-17T06:34:46.743Z,10.21
2022-10-17T06:35:41.781Z,10.31
2022-10-17T06:36:36.823Z,10.41
2022-10-17T06:37:35.412Z,10.55
2022-10-17T06:38:27.808Z,10.64
2022-10-17T06:39:27.318Z,10.71
2022-10-17T06:40:22.757Z,10.79
2022-10-17T06:41:18.488Z,10.87
2022-10-17T06:42:13.838Z,10.89
2022-10-17T06:43:08.875Z,10.92
2022-10-17T06:44:03.902Z,10.95
2022-10-17T06:44:58.946Z,11.01
2022-10-17T06:45:59.324Z,11.09
2022-10-17T06:46:54.751Z,11.23
2022-10-17T06:47:50.194Z,11.41
2022-10-17T06:48:45.683Z,11.54
2022-10-17T06:49:41.172Z,11.62
2022-10-17T06:50:36.672Z,11.75
2022-10-17T06:51:32.086Z,11.86
2022-10-17T06:52:27.546Z,11.93
2022-10-17T06:53:23.007Z,12.00
2022-10-17T06:54:18.432Z,12.10
2022-10-17T06:55:15.796Z,12.14
2022-10-17T06:56:09.352Z,12.15
2022-10-17T06:57:04.840Z,12.16
2022-10-17T06:58:00.565Z,12.19
2022-10-17T06:58:59.710Z,12.17
2022-10-17T06:59:55.157Z,12.19
2022-10-17T07:00:50.720Z,12.23
2022-10-17T07:01:47.151Z,12.29
2022-10-17T07:02:41.676Z,12.31
2022-10-17T07:03:36.992Z,12.36
2022-10-17T07:04:33.557Z,12.44
2022-10-17T07:05:29.016Z,12.48
2022-10-17T07:06:24.440Z,12.40
2022-10-17T07:07:19.872Z,12.33
2022-10-17T07:08:15.426Z,12.26
2022-10-17T07:09:10.504Z,12.22
2022-10-17T07:10:05.558Z,12.24
2022-10-17T07:11:00.751Z,12.35
2022-10-17T07:11:55.620Z,12.47
2022-10-17T07:12:50.677Z,12.57
2022-10-17T07:13:45.739Z,12.70
2022-10-17T07:14:40.786Z,12.81
2022-10-17T07:15:35.805Z,12.90
2022-10-17T07:16:30.815Z,12.97
2022-10-17T07:17:25.893Z,13.04
2022-10-17T07:18:20.913Z,13.08
2022-10-17T07:19:16.001Z,13.00
2022-10-17T07:20:11.073Z,13.00
2022-10-17T07:21:06.195Z,13.05
2022-10-17T07:22:03.369Z,13.10
2022-10-17T07:22:58.735Z,13.21
2022-10-17T07:23:54.114Z,13.37
2022-10-17T07:25:44.951Z,13.53
2022-10-17T07:26:40.355Z,13.60
2022-10-17T07:27:35.786Z,13.62
2022-10-17T07:28:31.190Z,13.67
2022-10-17T07:29:26.691Z,13.73
2022-10-17T07:30:21.934Z,13.80
2022-10-17T07:31:18.803Z,13.88
2022-10-17T07:32:14.269Z,13.95
2022-10-17T07:33:09.537Z,13.97
2022-10-17T07:34:04.925Z,14.00
2022-10-17T07:35:00.478Z,13.98
2022-10-17T07:35:55.835Z,14.02
2022-10-17T07:36:50.929Z,14.00
2022-10-17T07:37:46.043Z,14.04
2022-10-17T07:38:41.195Z,14.10
2022-10-17T07:39:36.160Z,14.27
2022-10-17T07:40:31.214Z,14.33
2022-10-17T07:41:26.339Z,14.40
2022-10-17T07:42:21.468Z,14.49
2022-10-17T07:43:16.426Z,14.59
2022-10-17T07:44:11.635Z,14.68
2022-10-17T07:45:06.611Z,14.83
2022-10-17T07:46:01.606Z,14.99
2022-10-17T07:46:56.687Z,15.10
2022-10-17T07:47:51.923Z,15.18
2022-10-17T07:48:46.772Z,15.26
2022-10-17T07:49:41.861Z,15.37
2022-10-17T07:50:37.002Z,15.46
2022-10-17T07:51:31.962Z,15.54
2022-10-17T07:52:27.318Z,15.70
2022-10-17T07:53:22.074Z,15.72
2022-10-17T07:54:21.213Z,15.74
2022-10-17T07:55:16.320Z,15.78
2022-10-17T07:56:11.284Z,15.88
2022-10-17T07:57:06.388Z,16.05
2022-10-17T07:58:01.549Z,16.03
2022-10-17T07:59:51.634Z,16.15
2022-10-17T08:00:47.012Z,16.25
2022-10-17T08:01:42.276Z,16.34
2022-10-17T08:02:37.710Z,16.36
2022-10-17T08:03:32.967Z,16.38
2022-10-17T08:04:28.351Z,16.43
2022-10-17T08:05:23.831Z,16.59
2022-10-17T08:06:19.079Z,16.69
2022-10-17T08:07:21.868Z,16.75
2022-10-17T08:08:10.905Z,16.79
2022-10-17T08:09:05.352Z,16.84
2022-10-17T08:10:00.783Z,16.90
2022-10-17T08:10:55.862Z,16.94
2022-10-17T08:11:50.812Z,17.00
2022-10-17T08:12:45.811Z,17.14
2022-10-17T08:13:40.917Z,17.26
2022-10-17T08:14:36.023Z,17.30
2022-10-17T08:15:32.061Z,17.29
2022-10-17T08:16:26.254Z,17.45
2022-10-17T08:17:23.675Z,17.62
2022-10-17T08:18:18.748Z,17.76
2022-10-17T08:19:13.981Z,17.93
2022-10-17T08:20:09.005Z,17.91
2022-10-17T08:21:04.029Z,17.96
2022-10-17T08:21:59.155Z,17.98
2022-10-17T08:22:54.193Z,18.02
2022-10-17T08:23:49.364Z,18.13
2022-10-17T08:24:44.535Z,18.27
2022-10-17T08:25:39.993Z,18.23
2022-10-17T08:26:38.030Z,18.11
2022-10-17T08:27:32.198Z,17.91
2022-10-17T08:28:26.363Z,17.97
2022-10-17T08:29:21.770Z,17.98
2022-10-17T08:30:17.360Z,18.00
2022-10-17T08:31:12.794Z,17.99
2022-10-17T08:32:09.848Z,18.14
2022-10-17T08:33:03.820Z,18.24
2022-10-17T08:33:59.083Z,18.26
2022-10-17T08:34:54.543Z,18.24
2022-10-17T08:35:49.571Z,18.32
2022-10-17T08:36:44.565Z,18.36
2022-10-17T08:37:39.656Z,18.46
2022-10-17T08:38:35.512Z,18.50
2022-10-17T08:39:29.749Z,18.53
2022-10-17T08:40:24.819Z,18.58
2022-10-17T08:41:19.927Z,18.67
2022-10-17T08:42:15.066Z,18.81
2022-10-17T08:43:10.017Z,18.96
2022-10-17T08:44:05.071Z,19.19
2022-10-17T08:45:00.153Z,19.07
2022-10-17T08:45:55.246Z,19.01
2022-10-17T08:46:50.763Z,19.06
2022-10-17T08:47:46.251Z,18.66
2022-10-17T08:48:44.122Z,18.65
2022-10-17T08:49:37.158Z,18.64
2022-10-17T08:50:32.763Z,18.84
2022-10-17T08:51:28.262Z,19.03
2022-10-17T08:52:23.965Z,19.13
2022-10-17T08:53:19.291Z,19.30
2022-10-17T08:54:14.790Z,19.40
2022-10-17T08:55:10.346Z,19.33
2022-10-17T08:56:07.163Z,19.33
2022-10-17T08:57:01.303Z,19.33
2022-10-17T08:57:56.852Z,19.34
2022-10-17T08:58:52.313Z,19.30
2022-10-17T08:59:47.413Z,19.37
2022-10-17T09:00:42.418Z,19.31
2022-10-17T09:01:37.501Z,19.49
2022-10-17T09:02:32.646Z,19.52
2022-10-17T09:03:27.749Z,19.64
2022-10-17T09:04:22.747Z,19.71
2022-10-17T09:05:19.343Z,19.57
2022-10-17T09:06:12.741Z,19.53
2022-10-17T09:07:07.871Z,19.54
2022-10-17T09:08:03.078Z,19.50
2022-10-17T09:08:58.161Z,19.62
2022-10-17T09:09:53.198Z,19.47
2022-10-17T09:10:48.220Z,19.47
2022-10-17T09:11:43.272Z,19.47
2022-10-17T09:12:40.605Z,19.43
2022-10-17T09:14:30.534Z,20.01
2022-10-17T09:15:25.571Z,20.26
2022-10-17T09:16:20.567Z,20.25
2022-10-17T09:17:15.737Z,20.38
2022-10-17T09:18:10.755Z,20.58
2022-10-17T09:19:06.185Z,20.74
2022-10-17T09:20:01.790Z,20.55
2022-10-17T09:20:57.185Z,20.64
2022-10-17T09:21:52.599Z,20.37
2022-10-17T09:22:48.105Z,20.21
2022-10-17T09:23:43.373Z,20.29
2022-10-17T09:24:38.794Z,20.41
2022-10-17T09:25:34.259Z,20.84
2022-10-17T09:26:29.679Z,21.24
2022-10-17T09:27:25.378Z,21.33
2022-10-17T09:28:20.517Z,21.32
2022-10-17T09:29:15.589Z,21.24
2022-10-17T09:30:17.219Z,21.00
2022-10-17T09:31:06.645Z,20.89
2022-10-17T09:32:00.748Z,20.77
2022-10-17T09:32:55.755Z,20.83
2022-10-17T09:33:54.410Z,20.90
2022-10-17T09:34:45.876Z,20.98
2022-10-17T09:35:40.938Z,21.20
2022-10-17T09:36:36.403Z,21.30
2022-10-17T09:37:31.942Z,21.48
2022-10-17T09:38:27.404Z,21.47
2022-10-17T09:39:22.754Z,21.17
2022-10-17T09:40:18.220Z,20.92
2022-10-17T09:41:39.261Z,20.54
2022-10-17T09:42:09.420Z,20.12
2022-10-17T09:43:03.443Z,19.93
2022-10-17T09:43:58.494Z,19.83
2022-10-17T09:44:54.133Z,19.83
2022-10-17T09:45:49.484Z,19.93
2022-10-17T09:46:44.973Z,20.14
2022-10-17T09:47:40.671Z,20.34
2022-10-17T09:48:36.102Z,20.56
2022-10-17T09:49:31.563Z,20.67
2022-10-17T09:50:27.143Z,20.90
2022-10-17T09:51:26.056Z,20.86
2022-10-17T09:52:17.768Z,20.60
2022-10-17T09:53:12.765Z,20.20
2022-10-17T09:54:07.830Z,20.28
2022-10-17T09:55:02.852Z,20.63
2022-10-17T09:55:57.938Z,21.04
2022-10-17T09:56:53.126Z,21.36
2022-10-17T09:57:48.098Z,21.45
2022-10-17T09:58:43.128Z,21.30
2022-10-17T09:59:38.242Z,20.89
2022-10-17T10:00:33.296Z,20.64
2022-10-17T10:01:28.286Z,20.53
2022-10-17T10:02:23.339Z,20.68
2022-10-17T10:03:18.410Z,20.73
2022-10-17T10:04:13.490Z,20.64
2022-10-17T10:05:10.758Z,20.62
2022-10-17T10:06:06.046Z,20.74
2022-10-17T10:07:01.539Z,21.14
2022-10-17T10:07:56.894Z,21.44
2022-10-17T10:08:52.536Z,21.75
2022-10-17T10:09:47.999Z,21.99
2022-10-17T10:10:43.485Z,22.09
2022-10-17T10:11:38.987Z,22.14
2022-10-17T10:12:34.602Z,22.09
2022-10-17T10:13:30.109Z,22.37
2022-10-17T10:14:25.636Z,22.61
2022-10-17T10:15:21.219Z,22.75
2022-10-17T10:16:16.717Z,22.69
2022-10-17T10:17:12.278Z,22.49
2022-10-17T10:18:07.767Z,22.47
2022-10-17T10:19:05.862Z,22.43
2022-10-17T10:19:58.875Z,22.39
2022-10-17T10:20:52.858Z,22.45
2022-10-17T10:21:47.899Z,22.68
2022-10-17T10:22:43.099Z,22.68
2022-10-17T10:23:38.078Z,22.61
2022-10-17T10:24:33.140Z,22.65
2022-10-17T10:25:28.323Z,22.73
2022-10-17T10:26:23.525Z,22.74
2022-10-17T10:27:18.647Z,23.02
2022-10-17T10:28:13.614Z,23.08
2022-10-17T10:29:08.720Z,23.21
2022-10-17T10:30:03.658Z,23.28
2022-10-17T10:30:58.710Z,23.28
2022-10-17T10:31:53.753Z,22.48
2022-10-17T10:32:48.781Z,22.31
2022-10-17T10:33:46.945Z,22.19
2022-10-17T10:34:39.942Z,22.12
2022-10-17T10:35:33.984Z,21.94
2022-10-17T10:36:29.961Z,21.79
2022-10-17T10:37:24.831Z,21.59
2022-10-17T10:38:20.435Z,21.31
2022-10-17T10:39:17.778Z,21.24
2022-10-17T10:40:13.239Z,21.47
2022-10-17T10:41:08.755Z,21.80
2022-10-17T10:42:04.241Z,22.14
2022-10-17T10:43:04.885Z,22.49
2022-10-17T10:43:56.226Z,22.63
2022-10-17T10:44:50.305Z,22.72
2022-10-17T10:45:49.132Z,23.11
2022-10-17T10:46:40.439Z,23.42
2022-10-17T10:47:35.664Z,23.66
2022-10-17T10:48:30.587Z,23.66
2022-10-17T10:49:25.619Z,23.86
2022-10-17T10:50:20.748Z,24.08
2022-10-17T10:51:16.637Z,24.41
2022-10-17T10:52:12.136Z,24.59
2022-10-17T10:53:07.614Z,24.65
2022-10-17T10:54:03.115Z,24.57
2022-10-17T10:54:58.717Z,24.26
2022-10-17T10:55:54.062Z,24.05
2022-10-17T10:56:51.277Z,23.96
2022-10-17T10:57:44.669Z,23.79
2022-10-17T10:58:41.975Z,24.05
2022-10-17T10:59:34.971Z,24.11
2022-10-17T11:00:30.076Z,24.21
2022-10-17T11:01:25.026Z,24.23
2022-10-17T11:02:20.226Z,24.29
2022-10-17T11:03:15.294Z,24.45
2022-10-17T11:04:10.517Z,24.42
2022-10-17T11:05:06.001Z,24.39
2022-10-17T11:06:01.652Z,24.69
2022-10-17T11:06:57.157Z,24.91
2022-10-17T11:07:52.578Z,24.86
2022-10-17T11:08:48.135Z,24.96
2022-10-17T11:09:43.612Z,24.66
2022-10-17T11:10:39.167Z,24.30
2022-10-17T11:11:34.736Z,24.41
2022-10-17T11:12:29.772Z,24.69
2022-10-17T11:13:24.911Z,25.19
2022-10-17T11:14:19.934Z,25.40
2022-10-17T11:15:14.968Z,25.33
2022-10-17T11:16:09.995Z,25.43
2022-10-17T11:17:05.003Z,25.41
2022-10-17T11:18:00.023Z,25.53
2022-10-17T11:18:55.028Z,25.68
2022-10-17T11:19:50.063Z,25.83
2022-10-17T11:20:45.072Z,26.08
2022-10-17T11:22:35.436Z,26.38
2022-10-17T11:23:30.203Z,26.28
2022-10-17T11:24:25.681Z,26.30
2022-10-17T11:25:21.063Z,26.06
2022-10-17T11:26:16.593Z,25.79
2022-10-17T11:27:11.622Z,25.71
2022-10-17T11:28:06.724Z,25.35
2022-10-17T11:29:01.853Z,25.11
2022-10-17T11:29:58.411Z,24.89
2022-10-17T11:30:53.400Z,24.50
2022-10-17T11:31:48.454Z,24.48
2022-10-17T11:32:43.595Z,24.69
2022-10-17T11:33:38.711Z,24.82
2022-10-17T11:34:33.836Z,24.99
2022-10-17T11:35:28.829Z,25.22
2022-10-17T11:36:23.827Z,25.40
2022-10-17T11:37:18.989Z,25.61
2022-10-17T11:38:14.139Z,25.72
2022-10-17T11:39:09.231Z,25.68
2022-10-17T11:40:04.253Z,25.57
2022-10-17T11:40:59.246Z,25.35
2022-10-17T11:41:55.429Z,25.13
2022-10-17T11:42:49.368Z,24.91
2022-10-17T11:43:44.352Z,24.96
2022-10-17T11:44:39.445Z,24.95
2022-10-17T11:45:34.489Z,24.86
2022-10-17T11:46:29.830Z,24.72
2022-10-17T11:47:25.317Z,24.80
2022-10-17T11:48:20.936Z,24.86
2022-10-17T11:49:20.444Z,24.81
2022-10-17T11:52:03.978Z,25.22
2022-10-17T11:52:58.635Z,25.39
2022-10-17T11:53:54.042Z,25.41
2022-10-17T11:54:49.447Z,25.43
2022-10-17T11:55:45.058Z,25.24
2022-10-17T11:56:42.661Z,24.99
2022-10-17T11:57:35.191Z,24.73
2022-10-17T11:58:30.495Z,24.57
2022-10-17T11:59:27.087Z,24.35
2022-10-17T12:00:22.113Z,24.09
2022-10-17T12:01:17.137Z,24.10
2022-10-17T12:02:12.165Z,24.02
2022-10-17T12:03:07.374Z,23.94
2022-10-17T12:04:02.469Z,24.12
2022-10-17T12:04:57.557Z,24.31
2022-10-17T12:05:52.605Z,24.42
2022-10-17T12:06:47.650Z,24.52
2022-10-17T12:08:37.811Z,24.40